sensor_id;sensor_type;location;lat;lon;timestamp;temperature;humidity
5172;DHT22;2605;49.770;9.868;2023-09-19T00:00:22;15.70;99.90
5172;DHT22;2605;49.770;9.868;2023-09-19T00:02:58;15.70;99.90
5172;DHT22;2605;49.770;9.868;2023-09-19T00:05:28;15.70;99.90
5172;DHT22;2605;49.770;9.868;2023-09-19T00:07:55;15.70;99.90
5172;DHT22;2605;49.770;9.868;2023-09-19T00:10:24;15.70;99.90
5172;DHT22;2605;49.770;9.868;2023-09-19T00:12:53;15.70;99.90
5172;DHT22;2605;49.770;9.868;2023-09-19T00:15:23;15.70;99.90
5172;DHT22;2605;49.770;9.868;2023-09-19T00:17:48;15.60;99.90
5172;DHT22;2605;49.770;9.868;2023-09-19T00:20:18;15.60;99.90
5172;DHT22;2605;49.770;9.868;2023-09-19T00:22:44;15.60;99.90
5172;DHT22;2605;49.770;9.868;2023-09-19T00:25:10;15.60;99.90
5172;DHT22;2605;49.770;9.868;2023-09-19T00:27:40;15.60;99.90
5172;DHT22;2605;49.770;9.868;2023-09-19T00:30:09;15.50;99.90
5172;DHT22;2605;49.770;9.868;2023-09-19T00:32:55;15.50;99.90
5172;DHT22;2605;49.770;9.868;2023-09-19T00:35:21;15.50;99.90
5172;DHT22;2605;49.770;9.868;2023-09-19T00:37:51;15.50;99.90
5172;DHT22;2605;49.770;9.868;2023-09-19T00:40:16;15.60;99.90
5172;DHT22;2605;49.770;9.868;2023-09-19T00:42:46;15.60;99.90
5172;DHT22;2605;49.770;9.868;2023-09-19T00:45:13;15.60;99.90
5172;DHT22;2605;49.770;9.868;2023-09-19T00:47:49;15.60;99.90
5172;DHT22;2605;49.770;9.868;2023-09-19T00:50:17;15.60;99.90
5172;DHT22;2605;49.770;9.868;2023-09-19T00:52:44;15.50;99.90
5172;DHT22;2605;49.770;9.868;2023-09-19T00:55:11;15.50;99.90
5172;DHT22;2605;49.770;9.868;2023-09-19T00:57:39;15.50;99.90
5172;DHT22;2605;49.770;9.868;2023-09-19T01:00:07;15.50;99.90
5172;DHT22;2605;49.770;9.868;2023-09-19T01:02:34;15.50;99.90
5172;DHT22;2605;49.770;9.868;2023-09-19T01:05:00;15.40;99.90
5172;DHT22;2605;49.770;9.868;2023-09-19T01:07:30;15.40;99.90
5172;DHT22;2605;49.770;9.868;2023-09-19T01:09:57;15.40;99.90
5172;DHT22;2605;49.770;9.868;2023-09-19T01:12:33;15.40;99.90
5172;DHT22;2605;49.770;9.868;2023-09-19T01:21:15;15.40;99.90
5172;DHT22;2605;49.770;9.868;2023-09-19T01:29:38;15.30;99.90
5172;DHT22;2605;49.770;9.868;2023-09-19T01:32:05;15.30;99.90
5172;DHT22;2605;49.770;9.868;2023-09-19T01:35:03;15.30;99.90
5172;DHT22;2605;49.770;9.868;2023-09-19T01:37:30;15.20;99.90
5172;DHT22;2605;49.770;9.868;2023-09-19T01:40:05;15.20;99.90
5172;DHT22;2605;49.770;9.868;2023-09-19T01:45:46;15.10;99.90
5172;DHT22;2605;49.770;9.868;2023-09-19T01:48:40;15.10;99.90
5172;DHT22;2605;49.770;9.868;2023-09-19T01:51:10;15.00;99.90
5172;DHT22;2605;49.770;9.868;2023-09-19T01:56:08;15.00;99.90
5172;DHT22;2605;49.770;9.868;2023-09-19T01:58:41;15.00;99.90
5172;DHT22;2605;49.770;9.868;2023-09-19T02:01:11;15.00;99.90
5172;DHT22;2605;49.770;9.868;2023-09-19T02:09:07;15.00;99.90
5172;DHT22;2605;49.770;9.868;2023-09-19T02:11:34;15.10;99.90
5172;DHT22;2605;49.770;9.868;2023-09-19T02:14:09;15.10;99.90
5172;DHT22;2605;49.770;9.868;2023-09-19T02:16:35;15.20;99.90
5172;DHT22;2605;49.770;9.868;2023-09-19T02:19:03;15.20;99.90
5172;DHT22;2605;49.770;9.868;2023-09-19T02:21:38;15.20;99.90
5172;DHT22;2605;49.770;9.868;2023-09-19T02:24:06;15.20;99.90
5172;DHT22;2605;49.770;9.868;2023-09-19T02:26:33;15.20;99.90
5172;DHT22;2605;49.770;9.868;2023-09-19T02:29:04;15.30;99.90
5172;DHT22;2605;49.770;9.868;2023-09-19T02:31:39;15.20;99.90
5172;DHT22;2605;49.770;9.868;2023-09-19T02:34:09;15.20;99.90
5172;DHT22;2605;49.770;9.868;2023-09-19T02:36:40;15.20;99.90
5172;DHT22;2605;49.770;9.868;2023-09-19T02:39:06;15.20;99.90
5172;DHT22;2605;49.770;9.868;2023-09-19T02:41:36;15.20;99.90
5172;DHT22;2605;49.770;9.868;2023-09-19T02:44:05;15.20;99.90
5172;DHT22;2605;49.770;9.868;2023-09-19T02:46:40;15.30;99.90
5172;DHT22;2605;49.770;9.868;2023-09-19T02:49:08;15.30;99.90
5172;DHT22;2605;49.770;9.868;2023-09-19T02:51:34;15.30;99.90
5172;DHT22;2605;49.770;9.868;2023-09-19T02:54:00;15.40;99.90
5172;DHT22;2605;49.770;9.868;2023-09-19T02:56:28;15.40;99.90
5172;DHT22;2605;49.770;9.868;2023-09-19T02:58:55;15.40;99.90
5172;DHT22;2605;49.770;9.868;2023-09-19T03:01:21;15.40;99.90
5172;DHT22;2605;49.770;9.868;2023-09-19T03:03:53;15.40;99.90
5172;DHT22;2605;49.770;9.868;2023-09-19T03:06:22;15.40;99.90
5172;DHT22;2605;49.770;9.868;2023-09-19T03:08:49;15.30;99.90
5172;DHT22;2605;49.770;9.868;2023-09-19T03:11:17;15.30;99.90
5172;DHT22;2605;49.770;9.868;2023-09-19T03:13:53;15.20;99.90
5172;DHT22;2605;49.770;9.868;2023-09-19T03:16:19;15.20;99.90
5172;DHT22;2605;49.770;9.868;2023-09-19T03:18:50;15.20;99.90
5172;DHT22;2605;49.770;9.868;2023-09-19T03:21:16;15.20;99.90
5172;DHT22;2605;49.770;9.868;2023-09-19T03:23:47;15.20;99.90
5172;DHT22;2605;49.770;9.868;2023-09-19T03:26:12;15.20;99.90
5172;DHT22;2605;49.770;9.868;2023-09-19T03:28:39;15.30;99.90
5172;DHT22;2605;49.770;9.868;2023-09-19T03:31:05;15.30;99.90
5172;DHT22;2605;49.770;9.868;2023-09-19T03:33:31;15.30;99.90
5172;DHT22;2605;49.770;9.868;2023-09-19T03:35:58;15.30;99.90
5172;DHT22;2605;49.770;9.868;2023-09-19T03:38:25;15.20;99.90
5172;DHT22;2605;49.770;9.868;2023-09-19T03:40:50;15.20;99.90
5172;DHT22;2605;49.770;9.868;2023-09-19T03:43:16;15.20;99.90
5172;DHT22;2605;49.770;9.868;2023-09-19T03:45:41;15.20;99.90
5172;DHT22;2605;49.770;9.868;2023-09-19T03:48:09;15.20;99.90
5172;DHT22;2605;49.770;9.868;2023-09-19T03:50:40;15.10;99.90
5172;DHT22;2605;49.770;9.868;2023-09-19T03:53:09;15.10;99.90
5172;DHT22;2605;49.770;9.868;2023-09-19T03:55:34;15.10;99.90
5172;DHT22;2605;49.770;9.868;2023-09-19T03:58:07;15.00;99.90
5172;DHT22;2605;49.770;9.868;2023-09-19T04:00:32;15.00;99.90
5172;DHT22;2605;49.770;9.868;2023-09-19T04:02:59;14.80;99.90
5172;DHT22;2605;49.770;9.868;2023-09-19T04:05:27;14.80;99.90
5172;DHT22;2605;49.770;9.868;2023-09-19T04:07:53;14.70;99.90
5172;DHT22;2605;49.770;9.868;2023-09-19T04:10:19;14.60;99.90
5172;DHT22;2605;49.770;9.868;2023-09-19T04:12:51;14.60;99.90
5172;DHT22;2605;49.770;9.868;2023-09-19T04:15:21;14.60;99.90
5172;DHT22;2605;49.770;9.868;2023-09-19T04:17:55;14.50;99.90
5172;DHT22;2605;49.770;9.868;2023-09-19T04:20:26;14.50;99.90
5172;DHT22;2605;49.770;9.868;2023-09-19T04:22:55;14.50;99.90
5172;DHT22;2605;49.770;9.868;2023-09-19T04:25:27;14.50;99.90
5172;DHT22;2605;49.770;9.868;2023-09-19T04:27:53;14.50;99.90
5172;DHT22;2605;49.770;9.868;2023-09-19T04:30:24;14.50;99.90
5172;DHT22;2605;49.770;9.868;2023-09-19T04:32:52;14.50;99.90
5172;DHT22;2605;49.770;9.868;2023-09-19T04:35:18;14.50;99.90
5172;DHT22;2605;49.770;9.868;2023-09-19T04:37:47;14.50;99.90
5172;DHT22;2605;49.770;9.868;2023-09-19T04:40:13;14.50;99.90
5172;DHT22;2605;49.770;9.868;2023-09-19T04:42:45;14.40;99.90
5172;DHT22;2605;49.770;9.868;2023-09-19T04:45:11;14.40;99.90
5172;DHT22;2605;49.770;9.868;2023-09-19T04:47:40;14.40;99.90
5172;DHT22;2605;49.770;9.868;2023-09-19T04:50:07;14.40;99.90
5172;DHT22;2605;49.770;9.868;2023-09-19T04:52:33;14.40;99.90
5172;DHT22;2605;49.770;9.868;2023-09-19T04:54:59;14.30;99.90
5172;DHT22;2605;49.770;9.868;2023-09-19T04:57:27;14.40;99.90
5172;DHT22;2605;49.770;9.868;2023-09-19T04:59:56;14.30;99.90
5172;DHT22;2605;49.770;9.868;2023-09-19T05:02:24;14.30;99.90
5172;DHT22;2605;49.770;9.868;2023-09-19T05:04:52;14.30;99.90
5172;DHT22;2605;49.770;9.868;2023-09-19T05:07:19;14.60;99.90
5172;DHT22;2605;49.770;9.868;2023-09-19T05:09:47;14.20;99.90
5172;DHT22;2605;49.770;9.868;2023-09-19T05:12:12;14.20;99.90
5172;DHT22;2605;49.770;9.868;2023-09-19T05:14:38;14.20;99.90
5172;DHT22;2605;49.770;9.868;2023-09-19T05:17:05;14.20;99.90
5172;DHT22;2605;49.770;9.868;2023-09-19T05:19:31;14.20;99.90
5172;DHT22;2605;49.770;9.868;2023-09-19T05:21:56;14.30;99.90
5172;DHT22;2605;49.770;9.868;2023-09-19T05:24:22;14.30;99.90
5172;DHT22;2605;49.770;9.868;2023-09-19T05:26:52;14.30;99.90
5172;DHT22;2605;49.770;9.868;2023-09-19T05:29:20;14.30;99.90
5172;DHT22;2605;49.770;9.868;2023-09-19T05:31:45;14.40;99.90
5172;DHT22;2605;49.770;9.868;2023-09-19T05:34:14;14.40;99.90
5172;DHT22;2605;49.770;9.868;2023-09-19T05:36:39;14.50;99.90
5172;DHT22;2605;49.770;9.868;2023-09-19T05:39:05;14.50;99.90
5172;DHT22;2605;49.770;9.868;2023-09-19T05:41:36;14.60;99.90
5172;DHT22;2605;49.770;9.868;2023-09-19T05:44:03;14.70;99.90
5172;DHT22;2605;49.770;9.868;2023-09-19T05:46:35;14.80;99.90
5172;DHT22;2605;49.770;9.868;2023-09-19T05:49:00;14.80;99.90
5172;DHT22;2605;49.770;9.868;2023-09-19T05:51:29;14.90;99.90
5172;DHT22;2605;49.770;9.868;2023-09-19T05:53:55;15.00;99.90
5172;DHT22;2605;49.770;9.868;2023-09-19T05:56:20;15.10;99.90
5172;DHT22;2605;49.770;9.868;2023-09-19T05:58:46;15.10;99.90
5172;DHT22;2605;49.770;9.868;2023-09-19T06:01:11;15.20;99.90
5172;DHT22;2605;49.770;9.868;2023-09-19T06:03:37;15.20;99.90
5172;DHT22;2605;49.770;9.868;2023-09-19T06:06:03;15.20;99.90
5172;DHT22;2605;49.770;9.868;2023-09-19T06:08:29;15.20;99.90
5172;DHT22;2605;49.770;9.868;2023-09-19T06:10:56;15.10;99.90
5172;DHT22;2605;49.770;9.868;2023-09-19T06:13:22;15.20;99.90
5172;DHT22;2605;49.770;9.868;2023-09-19T06:15:48;15.10;99.90
5172;DHT22;2605;49.770;9.868;2023-09-19T06:18:14;15.20;99.90
5172;DHT22;2605;49.770;9.868;2023-09-19T06:20:46;15.20;99.90
5172;DHT22;2605;49.770;9.868;2023-09-19T06:23:11;15.30;99.90
5172;DHT22;2605;49.770;9.868;2023-09-19T06:25:37;15.40;99.90
5172;DHT22;2605;49.770;9.868;2023-09-19T06:28:03;15.40;99.90
5172;DHT22;2605;49.770;9.868;2023-09-19T06:30:31;15.50;99.90
5172;DHT22;2605;49.770;9.868;2023-09-19T06:33:00;15.50;99.90
5172;DHT22;2605;49.770;9.868;2023-09-19T06:35:27;15.50;99.90
5172;DHT22;2605;49.770;9.868;2023-09-19T06:38:03;15.40;99.90
5172;DHT22;2605;49.770;9.868;2023-09-19T06:40:29;15.40;99.90
5172;DHT22;2605;49.770;9.868;2023-09-19T06:42:56;17.40;99.90
5172;DHT22;2605;49.770;9.868;2023-09-19T06:45:22;15.40;99.90
5172;DHT22;2605;49.770;9.868;2023-09-19T06:47:49;15.40;99.90
5172;DHT22;2605;49.770;9.868;2023-09-19T06:50:16;16.10;99.90
5172;DHT22;2605;49.770;9.868;2023-09-19T06:52:45;15.80;99.90
5172;DHT22;2605;49.770;9.868;2023-09-19T06:55:14;16.50;99.90
5172;DHT22;2605;49.770;9.868;2023-09-19T06:57:44;15.50;99.90
5172;DHT22;2605;49.770;9.868;2023-09-19T07:00:11;15.80;99.90
5172;DHT22;2605;49.770;9.868;2023-09-19T07:02:44;15.90;99.90
5172;DHT22;2605;49.770;9.868;2023-09-19T07:05:10;16.00;99.90
5172;DHT22;2605;49.770;9.868;2023-09-19T07:07:35;15.90;99.90
5172;DHT22;2605;49.770;9.868;2023-09-19T07:10:02;16.10;99.90
5172;DHT22;2605;49.770;9.868;2023-09-19T07:12:31;16.00;99.90
5172;DHT22;2605;49.770;9.868;2023-09-19T07:14:57;16.00;99.90
5172;DHT22;2605;49.770;9.868;2023-09-19T07:17:22;16.10;99.90
5172;DHT22;2605;49.770;9.868;2023-09-19T07:19:49;16.10;99.90
5172;DHT22;2605;49.770;9.868;2023-09-19T07:22:15;16.10;99.90
5172;DHT22;2605;49.770;9.868;2023-09-19T07:24:41;16.20;99.90
5172;DHT22;2605;49.770;9.868;2023-09-19T07:27:07;16.40;99.90
5172;DHT22;2605;49.770;9.868;2023-09-19T07:29:35;16.40;99.90
5172;DHT22;2605;49.770;9.868;2023-09-19T07:32:01;16.50;99.90
5172;DHT22;2605;49.770;9.868;2023-09-19T07:34:26;16.60;99.90
5172;DHT22;2605;49.770;9.868;2023-09-19T07:36:51;16.40;99.90
5172;DHT22;2605;49.770;9.868;2023-09-19T07:39:17;16.40;99.90
5172;DHT22;2605;49.770;9.868;2023-09-19T07:41:45;16.40;99.90
5172;DHT22;2605;49.770;9.868;2023-09-19T07:44:11;16.50;99.90
5172;DHT22;2605;49.770;9.868;2023-09-19T07:46:37;16.70;99.90
5172;DHT22;2605;49.770;9.868;2023-09-19T07:49:06;16.90;99.90
5172;DHT22;2605;49.770;9.868;2023-09-19T07:51:35;16.70;99.90
5172;DHT22;2605;49.770;9.868;2023-09-19T07:54:01;16.80;99.90
5172;DHT22;2605;49.770;9.868;2023-09-19T07:56:29;16.80;99.90
5172;DHT22;2605;49.770;9.868;2023-09-19T07:58:58;16.80;99.90
5172;DHT22;2605;49.770;9.868;2023-09-19T08:01:24;16.90;99.90
5172;DHT22;2605;49.770;9.868;2023-09-19T08:03:52;16.80;99.90
5172;DHT22;2605;49.770;9.868;2023-09-19T08:06:20;16.60;99.90
5172;DHT22;2605;49.770;9.868;2023-09-19T08:08:55;16.50;99.90
5172;DHT22;2605;49.770;9.868;2023-09-19T08:11:22;16.50;99.90
5172;DHT22;2605;49.770;9.868;2023-09-19T08:13:52;16.20;99.90
5172;DHT22;2605;49.770;9.868;2023-09-19T08:16:18;16.40;99.90
5172;DHT22;2605;49.770;9.868;2023-09-19T08:18:48;16.40;99.90
5172;DHT22;2605;49.770;9.868;2023-09-19T08:21:21;16.50;99.90
5172;DHT22;2605;49.770;9.868;2023-09-19T08:23:47;16.70;99.90
5172;DHT22;2605;49.770;9.868;2023-09-19T08:26:12;16.90;99.90
5172;DHT22;2605;49.770;9.868;2023-09-19T08:28:38;16.80;99.90
5172;DHT22;2605;49.770;9.868;2023-09-19T08:31:07;16.90;99.90
5172;DHT22;2605;49.770;9.868;2023-09-19T08:33:33;17.00;99.90
5172;DHT22;2605;49.770;9.868;2023-09-19T08:36:00;17.20;99.90
5172;DHT22;2605;49.770;9.868;2023-09-19T08:38:25;17.40;99.90
5172;DHT22;2605;49.770;9.868;2023-09-19T08:40:57;17.20;99.90
5172;DHT22;2605;49.770;9.868;2023-09-19T08:43:23;17.10;99.90
5172;DHT22;2605;49.770;9.868;2023-09-19T08:45:49;17.10;99.90
5172;DHT22;2605;49.770;9.868;2023-09-19T08:48:28;17.20;99.90
5172;DHT22;2605;49.770;9.868;2023-09-19T08:51:07;17.50;99.90
5172;DHT22;2605;49.770;9.868;2023-09-19T08:54:08;17.40;99.90
5172;DHT22;2605;49.770;9.868;2023-09-19T08:56:37;17.40;99.90
5172;DHT22;2605;49.770;9.868;2023-09-19T08:59:06;17.20;99.90
5172;DHT22;2605;49.770;9.868;2023-09-19T09:01:35;17.30;99.90
5172;DHT22;2605;49.770;9.868;2023-09-19T09:04:01;18.30;99.90
5172;DHT22;2605;49.770;9.868;2023-09-19T09:06:28;17.50;99.90
5172;DHT22;2605;49.770;9.868;2023-09-19T09:08:54;17.70;99.90
5172;DHT22;2605;49.770;9.868;2023-09-19T09:11:20;17.80;99.90
5172;DHT22;2605;49.770;9.868;2023-09-19T09:13:47;18.00;99.90
5172;DHT22;2605;49.770;9.868;2023-09-19T09:16:13;18.40;99.90
5172;DHT22;2605;49.770;9.868;2023-09-19T09:18:40;18.20;99.90
5172;DHT22;2605;49.770;9.868;2023-09-19T09:21:06;17.90;99.90
5172;DHT22;2605;49.770;9.868;2023-09-19T09:23:32;18.00;99.90
5172;DHT22;2605;49.770;9.868;2023-09-19T09:25:58;18.10;99.90
5172;DHT22;2605;49.770;9.868;2023-09-19T09:28:28;17.80;99.90
5172;DHT22;2605;49.770;9.868;2023-09-19T09:30:58;17.50;99.90
5172;DHT22;2605;49.770;9.868;2023-09-19T09:33:24;17.30;99.90
5172;DHT22;2605;49.770;9.868;2023-09-19T09:35:58;17.40;99.90
5172;DHT22;2605;49.770;9.868;2023-09-19T09:38:30;17.20;99.90
5172;DHT22;2605;49.770;9.868;2023-09-19T09:41:09;17.40;99.90
5172;DHT22;2605;49.770;9.868;2023-09-19T09:43:41;17.60;99.90
5172;DHT22;2605;49.770;9.868;2023-09-19T09:46:12;17.80;99.90
5172;DHT22;2605;49.770;9.868;2023-09-19T09:54:26;17.40;99.90
5172;DHT22;2605;49.770;9.868;2023-09-19T09:57:08;17.70;99.90
5172;DHT22;2605;49.770;9.868;2023-09-19T09:59:51;17.80;99.90
5172;DHT22;2605;49.770;9.868;2023-09-19T10:02:21;17.70;99.90
5172;DHT22;2605;49.770;9.868;2023-09-19T10:04:55;17.80;99.90
5172;DHT22;2605;49.770;9.868;2023-09-19T10:07:41;18.00;99.90
5172;DHT22;2605;49.770;9.868;2023-09-19T10:10:15;18.20;99.90
5172;DHT22;2605;49.770;9.868;2023-09-19T10:12:55;18.40;99.90
5172;DHT22;2605;49.770;9.868;2023-09-19T10:15:31;18.10;99.90
5172;DHT22;2605;49.770;9.868;2023-09-19T10:18:01;18.00;99.90
5172;DHT22;2605;49.770;9.868;2023-09-19T10:20:28;17.90;99.90
5172;DHT22;2605;49.770;9.868;2023-09-19T10:23:23;18.20;99.90
5172;DHT22;2605;49.770;9.868;2023-09-19T10:25:51;18.10;99.90
5172;DHT22;2605;49.770;9.868;2023-09-19T10:28:18;18.10;99.90
5172;DHT22;2605;49.770;9.868;2023-09-19T10:30:48;18.00;99.90
5172;DHT22;2605;49.770;9.868;2023-09-19T10:33:17;18.00;99.90
5172;DHT22;2605;49.770;9.868;2023-09-19T10:35:47;17.90;99.90
5172;DHT22;2605;49.770;9.868;2023-09-19T10:38:17;18.30;99.90
5172;DHT22;2605;49.770;9.868;2023-09-19T10:40:44;18.40;99.90
5172;DHT22;2605;49.770;9.868;2023-09-19T10:43:16;18.60;99.90
5172;DHT22;2605;49.770;9.868;2023-09-19T10:45:49;18.70;99.90
5172;DHT22;2605;49.770;9.868;2023-09-19T10:48:19;19.10;99.90
5172;DHT22;2605;49.770;9.868;2023-09-19T10:53:14;19.30;99.90
5172;DHT22;2605;49.770;9.868;2023-09-19T10:55:40;19.70;99.90
5172;DHT22;2605;49.770;9.868;2023-09-19T10:58:27;19.90;99.90
5172;DHT22;2605;49.770;9.868;2023-09-19T11:01:05;19.70;99.90
5172;DHT22;2605;49.770;9.868;2023-09-19T11:03:35;19.40;99.90
5172;DHT22;2605;49.770;9.868;2023-09-19T11:06:08;19.50;99.90
5172;DHT22;2605;49.770;9.868;2023-09-19T11:08:54;19.70;99.90
5172;DHT22;2605;49.770;9.868;2023-09-19T11:14:14;19.70;99.90
5172;DHT22;2605;49.770;9.868;2023-09-19T11:30:44;20.10;99.90
5172;DHT22;2605;49.770;9.868;2023-09-19T11:36:04;20.20;99.90
5172;DHT22;2605;49.770;9.868;2023-09-19T11:44:31;19.90;99.90
5172;DHT22;2605;49.770;9.868;2023-09-19T11:49:26;20.10;99.90
5172;DHT22;2605;49.770;9.868;2023-09-19T11:51:55;20.00;99.90
5172;DHT22;2605;49.770;9.868;2023-09-19T11:54:21;19.90;99.90
5172;DHT22;2605;49.770;9.868;2023-09-19T11:56:54;19.70;99.90
5172;DHT22;2605;49.770;9.868;2023-09-19T11:59:20;19.70;99.90
5172;DHT22;2605;49.770;9.868;2023-09-19T12:01:54;19.50;99.90
5172;DHT22;2605;49.770;9.868;2023-09-19T12:04:43;19.60;99.90
5172;DHT22;2605;49.770;9.868;2023-09-19T12:07:11;19.90;99.90
5172;DHT22;2605;49.770;9.868;2023-09-19T12:09:41;19.90;99.90
5172;DHT22;2605;49.770;9.868;2023-09-19T12:12:23;20.00;99.90
5172;DHT22;2605;49.770;9.868;2023-09-19T12:14:49;20.20;99.90
5172;DHT22;2605;49.770;9.868;2023-09-19T12:17:16;20.50;99.90
5172;DHT22;2605;49.770;9.868;2023-09-19T12:19:55;20.50;99.90
5172;DHT22;2605;49.770;9.868;2023-09-19T12:22:21;20.20;99.90
5172;DHT22;2605;49.770;9.868;2023-09-19T12:24:47;20.30;99.90
5172;DHT22;2605;49.770;9.868;2023-09-19T12:27:13;20.40;99.90
5172;DHT22;2605;49.770;9.868;2023-09-19T12:29:49;20.40;99.90
5172;DHT22;2605;49.770;9.868;2023-09-19T12:32:36;20.50;99.90
5172;DHT22;2605;49.770;9.868;2023-09-19T12:35:26;20.50;99.90
5172;DHT22;2605;49.770;9.868;2023-09-19T12:37:56;20.10;99.90
5172;DHT22;2605;49.770;9.868;2023-09-19T12:40:25;20.50;99.90
5172;DHT22;2605;49.770;9.868;2023-09-19T12:42:53;20.30;99.90
5172;DHT22;2605;49.770;9.868;2023-09-19T12:45:31;20.40;99.90
5172;DHT22;2605;49.770;9.868;2023-09-19T12:48:17;20.20;99.90
5172;DHT22;2605;49.770;9.868;2023-09-19T12:51:05;20.60;99.90
5172;DHT22;2605;49.770;9.868;2023-09-19T12:53:35;21.00;99.90
5172;DHT22;2605;49.770;9.868;2023-09-19T12:56:09;21.10;99.90
5172;DHT22;2605;49.770;9.868;2023-09-19T12:58:58;21.10;99.90
5172;DHT22;2605;49.770;9.868;2023-09-19T13:01:31;21.20;99.90
5172;DHT22;2605;49.770;9.868;2023-09-19T13:04:13;20.60;99.90
5172;DHT22;2605;49.770;9.868;2023-09-19T13:06:40;20.60;99.90
5172;DHT22;2605;49.770;9.868;2023-09-19T13:09:10;20.60;99.90
5172;DHT22;2605;49.770;9.868;2023-09-19T13:11:39;20.60;99.90
5172;DHT22;2605;49.770;9.868;2023-09-19T13:14:25;20.50;99.90
5172;DHT22;2605;49.770;9.868;2023-09-19T13:16:57;20.70;99.90
5172;DHT22;2605;49.770;9.868;2023-09-19T13:19:42;20.80;99.90
5172;DHT22;2605;49.770;9.868;2023-09-19T13:25:18;20.50;99.90
5172;DHT22;2605;49.770;9.868;2023-09-19T13:27:56;20.50;99.90
5172;DHT22;2605;49.770;9.868;2023-09-19T13:30:23;20.60;99.90
5172;DHT22;2605;49.770;9.868;2023-09-19T13:33:09;20.90;99.90
5172;DHT22;2605;49.770;9.868;2023-09-19T13:35:39;20.90;99.90
5172;DHT22;2605;49.770;9.868;2023-09-19T13:38:06;20.70;99.90
5172;DHT22;2605;49.770;9.868;2023-09-19T13:40:34;20.60;99.90
5172;DHT22;2605;49.770;9.868;2023-09-19T13:43:01;20.30;99.90
5172;DHT22;2605;49.770;9.868;2023-09-19T13:45:26;20.60;99.90
5172;DHT22;2605;49.770;9.868;2023-09-19T13:47:52;20.40;99.90
5172;DHT22;2605;49.770;9.868;2023-09-19T13:50:18;20.40;99.90
5172;DHT22;2605;49.770;9.868;2023-09-19T13:52:49;20.60;99.90
5172;DHT22;2605;49.770;9.868;2023-09-19T13:55:17;20.70;99.90
5172;DHT22;2605;49.770;9.868;2023-09-19T13:57:48;20.50;99.90
5172;DHT22;2605;49.770;9.868;2023-09-19T14:00:22;20.40;99.90
5172;DHT22;2605;49.770;9.868;2023-09-19T14:02:48;20.80;99.90
5172;DHT22;2605;49.770;9.868;2023-09-19T14:05:14;20.70;99.90
5172;DHT22;2605;49.770;9.868;2023-09-19T14:07:42;21.70;99.90
5172;DHT22;2605;49.770;9.868;2023-09-19T14:10:09;23.20;99.90
5172;DHT22;2605;49.770;9.868;2023-09-19T14:12:36;23.90;99.60
5172;DHT22;2605;49.770;9.868;2023-09-19T14:15:03;24.60;96.10
5172;DHT22;2605;49.770;9.868;2023-09-19T14:17:29;24.00;96.90
5172;DHT22;2605;49.770;9.868;2023-09-19T14:19:55;23.20;96.50
5172;DHT22;2605;49.770;9.868;2023-09-19T14:22:26;23.90;97.40
5172;DHT22;2605;49.770;9.868;2023-09-19T14:24:52;23.70;96.40
5172;DHT22;2605;49.770;9.868;2023-09-19T14:27:18;23.50;96.10
5172;DHT22;2605;49.770;9.868;2023-09-19T14:29:44;23.30;96.00
5172;DHT22;2605;49.770;9.868;2023-09-19T14:32:09;24.10;95.50
5172;DHT22;2605;49.770;9.868;2023-09-19T14:34:35;24.70;93.70
5172;DHT22;2605;49.770;9.868;2023-09-19T14:37:09;25.10;92.40
5172;DHT22;2605;49.770;9.868;2023-09-19T14:39:36;24.80;91.50
5172;DHT22;2605;49.770;9.868;2023-09-19T14:42:04;24.00;90.30
5172;DHT22;2605;49.770;9.868;2023-09-19T14:44:29;23.40;91.30
5172;DHT22;2605;49.770;9.868;2023-09-19T14:46:58;23.80;91.80
5172;DHT22;2605;49.770;9.868;2023-09-19T14:49:26;24.90;90.20
5172;DHT22;2605;49.770;9.868;2023-09-19T14:51:52;24.10;89.40
5172;DHT22;2605;49.770;9.868;2023-09-19T14:54:17;23.10;91.60
5172;DHT22;2605;49.770;9.868;2023-09-19T14:56:47;23.20;92.80
5172;DHT22;2605;49.770;9.868;2023-09-19T14:59:21;23.20;91.60
5172;DHT22;2605;49.770;9.868;2023-09-19T15:01:47;23.20;93.00
5172;DHT22;2605;49.770;9.868;2023-09-19T15:04:15;23.30;93.60
5172;DHT22;2605;49.770;9.868;2023-09-19T15:06:47;23.70;92.70
5172;DHT22;2605;49.770;9.868;2023-09-19T15:09:14;24.20;91.60
5172;DHT22;2605;49.770;9.868;2023-09-19T15:11:39;23.60;91.70
5172;DHT22;2605;49.770;9.868;2023-09-19T15:14:04;22.80;92.20
5172;DHT22;2605;49.770;9.868;2023-09-19T15:16:36;22.80;93.20
5172;DHT22;2605;49.770;9.868;2023-09-19T15:19:01;22.60;93.60
5172;DHT22;2605;49.770;9.868;2023-09-19T15:21:27;22.20;93.60
5172;DHT22;2605;49.770;9.868;2023-09-19T15:23:52;22.00;95.10
5172;DHT22;2605;49.770;9.868;2023-09-19T15:26:21;21.70;95.30
5172;DHT22;2605;49.770;9.868;2023-09-19T15:28:48;21.50;96.40
5172;DHT22;2605;49.770;9.868;2023-09-19T15:31:14;21.50;97.20
5172;DHT22;2605;49.770;9.868;2023-09-19T15:33:39;21.50;97.50
5172;DHT22;2605;49.770;9.868;2023-09-19T15:36:10;21.60;98.60
5172;DHT22;2605;49.770;9.868;2023-09-19T15:39:01;21.70;99.10
5172;DHT22;2605;49.770;9.868;2023-09-19T15:41:41;21.60;99.60
5172;DHT22;2605;49.770;9.868;2023-09-19T15:44:14;21.90;99.90
5172;DHT22;2605;49.770;9.868;2023-09-19T15:46:41;22.30;99.70
5172;DHT22;2605;49.770;9.868;2023-09-19T15:49:07;22.90;98.40
5172;DHT22;2605;49.770;9.868;2023-09-19T15:51:39;23.40;97.90
5172;DHT22;2605;49.770;9.868;2023-09-19T15:54:11;23.70;96.60
5172;DHT22;2605;49.770;9.868;2023-09-19T15:56:43;23.70;96.60
5172;DHT22;2605;49.770;9.868;2023-09-19T15:59:15;24.30;95.80
5172;DHT22;2605;49.770;9.868;2023-09-19T16:01:41;23.90;95.00
5172;DHT22;2605;49.770;9.868;2023-09-19T16:04:12;23.20;96.20
5172;DHT22;2605;49.770;9.868;2023-09-19T16:06:42;23.10;97.00
5172;DHT22;2605;49.770;9.868;2023-09-19T16:09:14;22.60;98.10
5172;DHT22;2605;49.770;9.868;2023-09-19T16:11:39;22.50;99.20
5172;DHT22;2605;49.770;9.868;2023-09-19T16:14:10;22.70;98.80
5172;DHT22;2605;49.770;9.868;2023-09-19T16:16:36;22.50;99.20
5172;DHT22;2605;49.770;9.868;2023-09-19T16:19:06;22.80;99.30
5172;DHT22;2605;49.770;9.868;2023-09-19T16:21:38;23.20;98.60
5172;DHT22;2605;49.770;9.868;2023-09-19T16:24:08;23.20;98.10
5172;DHT22;2605;49.770;9.868;2023-09-19T16:26:39;23.10;98.30
5172;DHT22;2605;49.770;9.868;2023-09-19T16:29:04;23.40;97.90
5172;DHT22;2605;49.770;9.868;2023-09-19T16:31:30;23.20;97.60
5172;DHT22;2605;49.770;9.868;2023-09-19T16:33:58;23.20;98.30
5172;DHT22;2605;49.770;9.868;2023-09-19T16:36:24;23.10;98.00
5172;DHT22;2605;49.770;9.868;2023-09-19T16:38:50;22.20;99.30
5172;DHT22;2605;49.770;9.868;2023-09-19T16:41:20;21.70;99.90
5172;DHT22;2605;49.770;9.868;2023-09-19T16:43:45;21.60;99.90
5172;DHT22;2605;49.770;9.868;2023-09-19T16:46:12;21.90;99.90
5172;DHT22;2605;49.770;9.868;2023-09-19T16:48:40;22.00;99.90
5172;DHT22;2605;49.770;9.868;2023-09-19T16:51:09;22.10;99.90
5172;DHT22;2605;49.770;9.868;2023-09-19T16:53:36;22.40;99.90
5172;DHT22;2605;49.770;9.868;2023-09-19T16:56:03;23.10;99.90
5172;DHT22;2605;49.770;9.868;2023-09-19T16:58:32;23.10;99.90
5172;DHT22;2605;49.770;9.868;2023-09-19T17:00:59;23.40;99.90
5172;DHT22;2605;49.770;9.868;2023-09-19T17:03:25;23.50;99.90
5172;DHT22;2605;49.770;9.868;2023-09-19T17:05:50;23.50;99.90
5172;DHT22;2605;49.770;9.868;2023-09-19T17:08:20;23.50;99.20
5172;DHT22;2605;49.770;9.868;2023-09-19T17:10:46;23.00;99.50
5172;DHT22;2605;49.770;9.868;2023-09-19T17:13:12;22.40;99.90
5172;DHT22;2605;49.770;9.868;2023-09-19T17:15:37;22.10;99.90
5172;DHT22;2605;49.770;9.868;2023-09-19T17:18:07;21.80;99.90